Time;durP1;ratioP1;P1;durP2;ratioP2;P2;SDS_P1;SDS_P2;PMS_P1;PMS_P2;Temp;Humidity;BMP_temperature;BMP_pressure;BME280_temperature;BME280_humidity;BME280_pressure;Samples;Min_cycle;Max_cycle;Signal;HPM_P1;HPM_P2
2023/04/27 00:02:09;;;;;;;2.20;2.00;;;4.50;99.90;;;;;;5041983;28;20049;-76
2023/04/27 00:04:34;;;;;;;1.25;1.25;;;4.50;99.90;;;;;;5043530;28;20527;-76
2023/04/27 00:07:00;;;;;;;2.53;1.88;;;4.50;99.90;;;;;;5044106;28;20399;-76
2023/04/27 00:09:25;;;;;;;1.38;1.27;;;4.50;99.90;;;;;;5043351;28;20049;-78
2023/04/27 00:11:51;;;;;;;2.38;2.17;;;4.50;99.90;;;;;;5041833;28;20041;-76
2023/04/27 00:14:17;;;;;;;4.00;2.75;;;4.60;99.90;;;;;;5043700;28;20514;-76
2023/04/27 00:16:42;;;;;;;2.45;1.92;;;4.50;99.90;;;;;;5042346;28;20048;-76
2023/04/27 00:19:08;;;;;;;2.30;1.55;;;4.50;99.90;;;;;;5043502;28;20037;-76
2023/04/27 00:21:34;;;;;;;2.17;1.98;;;4.40;99.90;;;;;;5043317;28;20491;-76
2023/04/27 00:24:00;;;;;;;3.67;1.80;;;4.40;99.90;;;;;;5043284;28;20036;-76
2023/04/27 00:26:25;;;;;;;1.70;1.38;;;4.40;99.90;;;;;;5042399;28;20049;-78
2023/04/27 00:28:51;;;;;;;2.03;1.40;;;4.30;99.90;;;;;;5042269;28;20754;-76
2023/04/27 00:31:17;;;;;;;2.20;1.60;;;4.30;99.90;;;;;;5042087;28;20073;-76
2023/04/27 00:33:42;;;;;;;5.22;3.42;;;4.30;99.90;;;;;;5043141;28;20284;-76
2023/04/27 00:36:08;;;;;;;2.65;2.33;;;4.30;99.90;;;;;;5042593;28;20045;-77
2023/04/27 00:38:33;;;;;;;2.08;1.90;;;4.30;99.90;;;;;;5043346;28;20045;-76
2023/04/27 00:41:03;;;;;;;4.10;2.08;;;4.30;99.90;;;;;;5043539;28;20068;-77
2023/04/27 00:43:29;;;;;;;2.22;2.03;;;4.30;99.90;;;;;;5042492;28;20055;-75
2023/04/27 00:45:55;;;;;;;2.85;2.53;;;4.40;99.90;;;;;;5043250;28;20550;-76
2023/04/27 00:48:20;;;;;;;1.33;1.23;;;4.40;99.90;;;;;;5042764;28;20037;-76
2023/04/27 00:50:46;;;;;;;4.35;2.08;;;4.30;99.90;;;;;;5042544;28;20053;-76
2023/04/27 00:53:13;;;;;;;3.38;1.70;;;4.30;99.90;;;;;;5043480;28;20036;-76
2023/04/27 00:55:38;;;;;;;2.70;2.42;;;4.30;99.90;;;;;;5042639;28;20049;-76
2023/04/27 00:58:04;;;;;;;2.33;2.08;;;4.20;99.90;;;;;;5042807;28;20041;-77
2023/04/27 01:00:30;;;;;;;1.25;1.25;;;4.20;99.90;;;;;;5042726;28;20495;-75
2023/04/27 01:02:55;;;;;;;1.90;1.80;;;4.20;99.90;;;;;;5041838;28;20121;-78
2023/04/27 01:05:23;;;;;;;2.58;1.95;;;4.20;99.90;;;;;;5042023;28;20084;-76
2023/04/27 01:07:48;;;;;;;1.55;1.45;;;4.20;99.90;;;;;;5041957;28;20116;-76
2023/04/27 01:10:14;;;;;;;4.50;2.45;;;4.10;99.90;;;;;;5042992;28;20128;-76
2023/04/27 01:12:40;;;;;;;1.88;1.58;;;4.10;99.90;;;;;;5084835;22;20054;-76
2023/04/27 01:15:06;;;;;;;1.83;1.45;;;4.10;99.90;;;;;;4988209;28;20045;-76
2023/04/27 01:17:31;;;;;;;2.13;1.92;;;4.10;99.90;;;;;;4982993;28;20630;-76
2023/04/27 01:19:58;;;;;;;2.13;2.03;;;4.10;99.90;;;;;;4994583;28;20042;-77
2023/04/27 01:22:24;;;;;;;1.67;1.58;;;4.00;99.90;;;;;;5002321;28;20050;-76
2023/04/27 01:24:50;;;;;;;2.15;1.73;;;4.00;99.90;;;;;;4999935;28;20080;-76
2023/04/27 01:27:16;;;;;;;1.40;1.30;;;4.00;99.90;;;;;;4998381;28;20074;-76
2023/04/27 01:29:42;;;;;;;2.58;2.38;;;4.00;99.90;;;;;;4992164;28;20096;-76
2023/04/27 01:32:08;;;;;;;4.97;2.28;;;4.00;99.90;;;;;;4995916;28;20077;-75
2023/04/27 01:34:33;;;;;;;3.70;1.65;;;4.00;99.90;;;;;;4999756;28;20065;-76
2023/04/27 01:36:59;;;;;;;2.67;2.47;;;4.00;99.90;;;;;;5001587;28;20411;-76
2023/04/27 01:39:25;;;;;;;2.08;1.60;;;4.00;99.90;;;;;;4984724;28;20050;-76
2023/04/27 01:41:50;;;;;;;1.42;1.13;;;4.00;99.90;;;;;;4984082;28;20035;-75
2023/04/27 01:44:16;;;;;;;2.78;2.10;;;4.00;99.90;;;;;;4998692;28;20710;-76
2023/04/27 01:46:41;;;;;;;2.50;2.30;;;4.00;99.90;;;;;;4984117;28;20043;-76
2023/04/27 01:49:07;;;;;;;2.28;1.63;;;4.10;99.90;;;;;;4999519;28;20041;-76
2023/04/27 01:51:32;;;;;;;2.60;1.95;;;4.10;99.90;;;;;;5001576;28;20384;-75
2023/04/27 01:53:58;;;;;;;1.50;1.40;;;4.20;99.90;;;;;;4986243;28;20133;-76
2023/04/27 01:56:24;;;;;;;2.13;1.83;;;4.20;99.90;;;;;;4995532;28;20050;-75
2023/04/27 01:58:52;;;;;;;3.83;1.63;;;4.20;99.90;;;;;;5004826;28;20097;-76
2023/04/27 02:01:17;;;;;;;2.75;2.53;;;4.20;99.90;;;;;;5010532;28;20092;-75
2023/04/27 02:03:43;;;;;;;1.98;1.85;;;4.30;99.90;;;;;;5006401;28;20066;-75
2023/04/27 02:06:08;;;;;;;2.50;2.30;;;4.30;99.90;;;;;;5003908;28;20071;-76
2023/04/27 02:08:34;;;;;;;3.78;2.33;;;4.30;99.90;;;;;;5001247;28;20096;-76
2023/04/27 02:10:59;;;;;;;2.40;2.30;;;4.40;99.90;;;;;;5008251;28;20054;-77
2023/04/27 02:13:25;;;;;;;1.77;1.67;;;4.40;99.90;;;;;;4988826;28;20049;-76
2023/04/27 02:15:51;;;;;;;3.42;3.13;;;4.40;99.90;;;;;;4993677;28;20486;-76
2023/04/27 02:18:17;;;;;;;3.30;2.95;;;4.40;99.90;;;;;;5006063;28;20049;-76
2023/04/27 02:20:43;;;;;;;2.10;1.85;;;4.40;99.90;;;;;;5004139;28;20128;-76
2023/04/27 02:23:08;;;;;;;0.85;0.85;;;4.50;99.90;;;;;;4992066;28;20125;-76
2023/04/27 02:25:37;;;;;;;2.75;1.60;;;4.50;99.90;;;;;;4986768;28;20038;-76
2023/04/27 02:28:03;;;;;;;1.77;1.50;;;4.50;99.90;;;;;;4985904;28;20080;-76
2023/04/27 02:30:29;;;;;;;1.88;1.27;;;4.50;99.90;;;;;;4985810;28;20054;-76
2023/04/27 02:32:58;;;;;;;2.30;2.17;;;4.60;99.90;;;;;;4990766;28;20377;-76
2023/04/27 02:35:23;;;;;;;2.42;2.13;;;4.60;99.90;;;;;;4987456;28;20125;-76
2023/04/27 02:37:49;;;;;;;2.20;1.92;;;4.60;99.90;;;;;;4991310;28;20126;-76
2023/04/27 02:40:15;;;;;;;2.35;1.42;;;4.60;99.90;;;;;;5006016;28;20814;-76
2023/04/27 02:42:40;;;;;;;1.42;1.35;;;4.60;99.90;;;;;;5004707;28;20451;-75
2023/04/27 02:45:07;;;;;;;2.30;2.20;;;4.60;99.90;;;;;;5006397;28;20496;-76
2023/04/27 02:47:32;;;;;;;1.55;1.45;;;4.60;99.90;;;;;;4992339;28;20100;-75
2023/04/27 02:49:59;;;;;;;2.15;1.30;;;4.60;99.90;;;;;;5011960;28;20129;-76
2023/04/27 02:52:24;;;;;;;2.60;2.40;;;4.60;99.90;;;;;;4991931;28;20049;-76
2023/04/27 02:54:50;;;;;;;0.80;0.80;;;4.60;99.90;;;;;;5020883;28;20054;-76
2023/04/27 02:57:15;;;;;;;3.17;1.80;;;4.60;99.90;;;;;;5004926;28;20042;-76
2023/04/27 02:59:41;;;;;;;2.35;2.15;;;4.60;99.90;;;;;;5020746;28;20168;-76
2023/04/27 03:02:07;;;;;;;2.50;1.58;;;4.50;99.90;;;;;;5002050;28;20049;-76
2023/04/27 03:04:32;;;;;;;2.28;1.58;;;4.50;99.90;;;;;;4986353;28;20042;-76
2023/04/27 03:06:58;;;;;;;5.20;1.25;;;4.50;99.90;;;;;;5000849;28;20042;-76
2023/04/27 03:09:23;;;;;;;2.40;1.75;;;4.50;99.90;;;;;;5009491;28;20138;-76
2023/04/27 03:11:49;;;;;;;2.10;1.65;;;4.50;99.90;;;;;;4986403;28;20050;-76
2023/04/27 03:14:15;;;;;;;1.00;1.00;;;4.50;99.90;;;;;;4985654;28;20089;-76
2023/04/27 03:16:40;;;;;;;1.48;1.38;;;4.40;99.90;;;;;;4985605;28;20042;-76
2023/04/27 03:19:06;;;;;;;1.95;1.65;;;4.40;99.90;;;;;;4984777;28;20054;-76
2023/04/27 03:21:31;;;;;;;2.22;2.13;;;4.40;99.90;;;;;;4985746;28;20054;-76
2023/04/27 03:23:57;;;;;;;4.30;1.65;;;4.50;99.90;;;;;;4989116;28;20407;-76
2023/04/27 03:26:23;;;;;;;1.65;1.48;;;4.50;99.90;;;;;;5004568;28;20038;-76
2023/04/27 03:28:48;;;;;;;2.20;2.08;;;4.40;99.90;;;;;;5019772;28;20050;-75
2023/04/27 03:31:14;;;;;;;3.03;1.80;;;4.40;99.90;;;;;;5016763;28;20041;-77
2023/04/27 03:33:40;;;;;;;2.67;2.25;;;4.30;99.90;;;;;;4997535;28;20039;-75
2023/04/27 03:36:07;;;;;;;2.67;2.47;;;4.30;99.90;;;;;;4985951;28;20093;-76
2023/04/27 03:38:34;;;;;;;3.38;2.58;;;4.20;99.90;;;;;;4984044;28;20046;-75
2023/04/27 03:41:00;;;;;;;2.42;1.85;;;4.20;99.90;;;;;;4997523;28;20517;-76
2023/04/27 03:43:26;;;;;;;1.60;1.50;;;4.10;99.90;;;;;;4984478;28;20051;-77
2023/04/27 03:45:52;;;;;;;1.90;1.80;;;4.10;99.90;;;;;;4986027;28;20042;-76
2023/04/27 03:48:17;;;;;;;2.30;2.08;;;4.10;99.90;;;;;;4986626;28;20042;-76
2023/04/27 03:50:43;;;;;;;2.42;1.98;;;4.10;99.90;;;;;;4984972;28;20042;-75
2023/04/27 03:53:10;;;;;;;4.40;2.08;;;4.00;99.90;;;;;;4985457;28;20137;-76
2023/04/27 03:55:40;;;;;;;2.10;2.00;;;4.00;99.90;;;;;;4983380;28;20048;-76
2023/04/27 03:58:06;;;;;;;2.78;2.58;;;4.00;99.90;;;;;;4984156;28;20097;-76
2023/04/27 04:00:32;;;;;;;2.78;2.50;;;3.90;99.90;;;;;;5000993;28;20054;-76
2023/04/27 04:02:58;;;;;;;1.50;1.40;;;3.90;99.90;;;;;;5004514;28;20077;-76
2023/04/27 04:05:23;;;;;;;2.25;2.15;;;3.80;99.90;;;;;;5019477;28;20100;-76
2023/04/27 04:07:49;;;;;;;2.30;2.17;;;3.80;99.90;;;;;;5003263;28;20076;-75
2023/04/27 04:10:15;;;;;;;4.85;2.03;;;3.80;99.90;;;;;;5004021;28;20305;-76
2023/04/27 04:12:40;;;;;;;2.33;2.20;;;3.80;99.90;;;;;;4990289;28;20058;-76
2023/04/27 04:15:10;;;;;;;3.05;2.80;;;3.70;99.90;;;;;;5004580;28;20432;-76
2023/04/27 04:17:35;;;;;;;3.30;3.00;;;3.70;99.90;;;;;;5004330;28;20046;-76
2023/04/27 04:20:05;;;;;;;11.35;2.45;;;3.70;99.90;;;;;;5003916;28;20041;-76
2023/04/27 04:22:31;;;;;;;2.97;2.25;;;3.70;99.90;;;;;;5002190;28;20049;-76
2023/04/27 04:24:56;;;;;;;2.50;1.70;;;3.70;99.90;;;;;;5001180;28;20038;-75
2023/04/27 04:27:22;;;;;;;2.50;2.35;;;3.60;99.90;;;;;;5018466;28;20053;-76
2023/04/27 04:29:48;;;;;;;1.90;1.40;;;3.70;99.90;;;;;;5002818;28;20038;-76
2023/04/27 04:32:16;;;;;;;1.85;1.20;;;3.70;99.90;;;;;;5002500;28;20049;-76
2023/04/27 04:34:42;;;;;;;1.92;1.83;;;3.70;99.90;;;;;;4994704;28;20046;-76
2023/04/27 04:37:07;;;;;;;2.45;1.40;;;3.70;99.90;;;;;;4984624;28;20405;-76
2023/04/27 04:39:33;;;;;;;2.50;2.15;;;3.70;99.90;;;;;;4984227;28;20038;-76
2023/04/27 04:41:59;;;;;;;2.28;2.08;;;3.70;99.90;;;;;;5002191;28;20044;-75
2023/04/27 04:44:24;;;;;;;3.85;3.55;;;3.70;99.90;;;;;;5016255;28;20095;-76
2023/04/27 04:46:50;;;;;;;1.83;1.73;;;3.80;99.90;;;;;;4982938;28;20481;-75
2023/04/27 04:49:16;;;;;;;4.43;2.85;;;3.80;99.90;;;;;;4988184;28;20048;-76
2023/04/27 04:51:43;;;;;;;2.25;2.13;;;3.80;99.90;;;;;;5002226;28;20107;-75
2023/04/27 04:54:09;;;;;;;3.00;2.45;;;3.70;99.90;;;;;;4985493;28;20125;-76
2023/04/27 04:56:35;;;;;;;3.10;2.20;;;3.70;99.90;;;;;;4981839;28;20046;-76
2023/04/27 04:59:00;;;;;;;2.67;2.55;;;3.70;99.90;;;;;;4983354;28;20531;-76
2023/04/27 05:01:26;;;;;;;1.85;1.75;;;3.80;99.90;;;;;;5003038;28;20590;-77
2023/04/27 05:03:52;;;;;;;2.30;2.10;;;3.80;99.90;;;;;;5002671;28;20092;-76
2023/04/27 05:06:18;;;;;;;1.92;1.77;;;3.80;99.90;;;;;;4986389;28;20074;-76
2023/04/27 05:08:43;;;;;;;1.83;1.73;;;3.80;99.90;;;;;;4987680;28;20053;-75
2023/04/27 05:11:10;;;;;;;2.70;2.50;;;3.80;99.90;;;;;;5000576;28;20702;-76
2023/04/27 05:13:37;;;;;;;3.15;2.38;;;3.80;99.90;;;;;;4983531;28;20046;-75
2023/04/27 05:16:04;;;;;;;2.83;2.60;;;3.90;99.90;;;;;;5001642;28;20033;-76
2023/04/27 05:18:30;;;;;;;2.72;2.47;;;3.90;99.90;;;;;;5002309;28;20077;-76
2023/04/27 05:20:56;;;;;;;2.90;2.75;;;3.90;99.90;;;;;;5001084;28;20080;-76
2023/04/27 05:23:21;;;;;;;2.28;2.10;;;3.90;99.90;;;;;;5002298;28;20042;-76
2023/04/27 05:25:47;;;;;;;3.88;2.97;;;4.00;99.90;;;;;;4991625;28;20057;-77
2023/04/27 05:28:13;;;;;;;1.88;1.77;;;4.00;99.90;;;;;;5002164;28;20041;-76
2023/04/27 05:30:38;;;;;;;2.00;1.65;;;4.10;99.90;;;;;;5002333;28;20053;-76
2023/04/27 05:33:04;;;;;;;1.77;1.67;;;4.10;99.90;;;;;;5003036;28;20046;-76
2023/04/27 05:35:31;;;;;;;3.15;1.85;;;4.10;99.90;;;;;;4987769;28;20038;-75
2023/04/27 05:37:57;;;;;;;2.38;2.28;;;4.20;99.90;;;;;;4988851;28;20113;-76
2023/04/27 05:40:23;;;;;;;8.32;2.88;;;4.20;99.90;;;;;;4988381;28;20042;-76
2023/04/27 05:42:48;;;;;;;3.63;3.40;;;4.30;99.90;;;;;;4987512;28;20452;-76
2023/04/27 05:45:14;;;;;;;4.20;2.53;;;4.30;99.90;;;;;;4987740;28;20038;-76
2023/04/27 05:47:40;;;;;;;4.28;2.58;;;4.40;99.90;;;;;;4987445;28;20046;-76
2023/04/27 05:50:06;;;;;;;3.13;2.05;;;4.40;99.90;;;;;;4987319;28;20489;-76
2023/04/27 05:52:32;;;;;;;2.35;2.22;;;4.40;99.90;;;;;;4987713;28;20047;-75
2023/04/27 05:54:57;;;;;;;1.77;1.67;;;4.50;99.90;;;;;;4988731;28;20571;-76
2023/04/27 05:57:24;;;;;;;3.78;2.70;;;4.50;99.90;;;;;;4986719;28;20128;-75
2023/04/27 05:59:50;;;;;;;3.05;2.85;;;4.60;99.90;;;;;;4986859;28;20057;-76
2023/04/27 06:02:16;;;;;;;1.50;1.40;;;4.60;99.90;;;;;;4986354;28;20046;-76
2023/04/27 06:04:41;;;;;;;2.38;2.22;;;4.70;99.90;;;;;;5000656;28;20108;-76
2023/04/27 06:07:12;;;;;;;3.78;3.40;;;4.70;99.90;;;;;;5008434;28;20045;-76
2023/04/27 06:09:38;;;;;;;2.47;2.35;;;4.70;99.90;;;;;;4981965;28;20057;-76
2023/04/27 06:12:07;;;;;;;2.10;1.88;;;4.80;99.90;;;;;;4989242;28;20042;-76
2023/04/27 06:14:34;;;;;;;2.03;1.83;;;4.80;99.90;;;;;;4986908;28;20512;-76
2023/04/27 06:17:00;;;;;;;2.75;2.38;;;4.90;99.90;;;;;;4989562;28;20399;-76
2023/04/27 06:19:26;;;;;;;2.80;1.88;;;4.90;99.90;;;;;;5004556;28;20048;-77
2023/04/27 06:21:55;;;;;;;15.68;2.55;;;5.00;99.90;;;;;;5005329;28;20030;-76
2023/04/27 06:24:21;;;;;;;4.97;2.28;;;5.00;99.90;;;;;;5021553;28;20050;-77
2023/04/27 06:26:48;;;;;;;6.57;2.63;;;5.10;99.90;;;;;;4994379;28;20469;-75
2023/04/27 06:29:14;;;;;;;2.97;1.90;;;5.10;99.90;;;;;;4991903;28;20273;-77
2023/04/27 06:31:40;;;;;;;5.38;3.53;;;5.20;99.90;;;;;;4988241;28;20046;-79
2023/04/27 06:34:06;;;;;;;3.25;1.35;;;5.20;99.90;;;;;;5003331;28;20392;-75
2023/04/27 06:36:31;;;;;;;6.65;2.28;;;5.30;99.90;;;;;;4992776;28;20120;-77
2023/04/27 06:38:57;;;;;;;2.03;1.92;;;5.30;99.90;;;;;;5003468;28;20046;-77
2023/04/27 06:41:24;;;;;;;1.90;1.42;;;5.40;99.90;;;;;;4985054;28;20034;-76
2023/04/27 06:43:50;;;;;;;2.17;1.63;;;5.50;99.90;;;;;;4984524;28;20042;-76
2023/04/27 06:46:15;;;;;;;1.55;1.45;;;5.50;99.90;;;;;;4997592;28;20276;-76
2023/04/27 06:48:41;;;;;;;3.30;2.75;;;5.60;99.90;;;;;;4996833;28;20551;-77
2023/04/27 06:51:06;;;;;;;2.15;2.00;;;5.60;99.90;;;;;;5005424;28;20399;-76
2023/04/27 06:53:32;;;;;;;1.60;1.45;;;5.70;99.90;;;;;;5005906;28;20100;-78
2023/04/27 06:55:58;;;;;;;1.50;1.33;;;5.80;99.90;;;;;;4999112;28;20448;-77
2023/04/27 06:58:24;;;;;;;1.88;1.73;;;5.80;99.90;;;;;;4985066;28;20081;-77
2023/04/27 07:00:50;;;;;;;3.08;1.88;;;5.90;99.90;;;;;;4993131;28;20532;-75
2023/04/27 07:03:16;;;;;;;2.10;1.90;;;5.90;99.90;;;;;;4984437;28;20054;-75
2023/04/27 07:05:42;;;;;;;2.95;1.88;;;6.00;99.90;;;;;;4992437;28;20053;-76
2023/04/27 07:08:07;;;;;;;2.70;2.08;;;6.00;99.90;;;;;;5005421;28;20125;-76
2023/04/27 07:10:33;;;;;;;2.03;1.73;;;6.10;99.90;;;;;;4996085;28;20129;-76
2023/04/27 07:12:58;;;;;;;3.92;1.48;;;6.10;99.90;;;;;;4985544;28;20050;-76
2023/04/27 07:15:24;;;;;;;1.60;1.23;;;6.20;99.90;;;;;;4995677;28;20404;-75
2023/04/27 07:17:52;;;;;;;1.48;1.38;;;6.30;99.90;;;;;;5021025;28;20365;-75
2023/04/27 07:20:19;;;;;;;1.80;1.70;;;6.30;99.90;;;;;;4996068;28;20042;-76
2023/04/27 07:22:44;;;;;;;1.20;1.08;;;6.30;99.90;;;;;;4995808;28;20535;-75
2023/04/27 07:25:10;;;;;;;2.85;1.10;;;6.40;99.90;;;;;;4989175;28;20042;-77
2023/04/27 07:27:37;;;;;;;1.80;1.52;;;6.40;99.90;;;;;;4984440;28;20042;-78
2023/04/27 07:30:04;;;;;;;1.88;1.40;;;6.50;99.90;;;;;;4983994;28;20046;-76
2023/04/27 07:32:30;;;;;;;5.32;2.05;;;6.50;99.90;;;;;;4984988;28;20577;-76
2023/04/27 07:34:56;;;;;;;4.90;2.03;;;6.60;99.90;;;;;;4988278;28;20116;-78
2023/04/27 07:37:22;;;;;;;2.28;1.63;;;6.60;99.90;;;;;;4992307;28;20046;-77
2023/04/27 07:39:49;;;;;;;3.22;1.25;;;6.70;99.90;;;;;;4997113;28;20100;-76
2023/04/27 07:42:14;;;;;;;2.22;1.58;;;6.70;99.90;;;;;;4997818;28;20037;-77
2023/04/27 07:44:41;;;;;;;7.18;1.30;;;6.80;99.90;;;;;;5002082;28;20490;-77
2023/04/27 07:47:07;;;;;;;3.72;1.42;;;6.80;99.90;;;;;;4989713;28;20066;-77
2023/04/27 07:49:33;;;;;;;1.02;1.02;;;6.90;99.90;;;;;;5000032;28;20046;-77
2023/04/27 07:51:59;;;;;;;3.63;1.42;;;6.90;99.90;;;;;;4996597;28;20038;-76
2023/04/27 07:54:25;;;;;;;1.67;1.40;;;7.00;99.90;;;;;;4986665;28;20042;-76
2023/04/27 07:56:51;;;;;;;1.23;1.13;;;7.00;99.90;;;;;;5003857;28;20078;-77
2023/04/27 07:59:16;;;;;;;0.95;0.70;;;7.10;99.90;;;;;;4986812;28;20400;-79
2023/04/27 08:01:42;;;;;;;0.93;0.90;;;7.10;99.90;;;;;;4986222;28;20042;-78
2023/04/27 08:04:08;;;;;;;2.40;1.20;;;7.20;99.90;;;;;;4982835;28;20050;-78
2023/04/27 08:06:33;;;;;;;4.80;2.00;;;7.20;99.90;;;;;;4987305;28;20487;-78
2023/04/27 08:09:00;;;;;;;0.82;0.80;;;7.30;99.90;;;;;;4973243;28;20046;-78
2023/04/27 08:11:26;;;;;;;1.02;1.00;;;7.30;99.90;;;;;;4980170;28;20067;-79
2023/04/27 08:13:52;;;;;;;1.13;1.02;;;7.40;99.90;;;;;;4984957;28;20054;-78
2023/04/27 08:16:17;;;;;;;1.85;0.88;;;7.40;99.90;;;;;;4983428;28;20050;-78
2023/04/27 08:18:43;;;;;;;1.50;1.17;;;7.40;99.90;;;;;;4984969;28;20384;-80
2023/04/27 08:21:09;;;;;;;0.75;0.75;;;7.50;99.90;;;;;;4985133;28;20045;-77
2023/04/27 08:23:36;;;;;;;0.68;0.68;;;7.50;99.90;;;;;;4991717;28;20112;-77
2023/04/27 08:26:02;;;;;;;3.50;0.95;;;7.60;99.90;;;;;;4983527;28;20054;-77
2023/04/27 08:28:28;;;;;;;1.20;1.08;;;7.60;99.90;;;;;;4982733;28;20057;-79
2023/04/27 08:30:53;;;;;;;3.15;1.27;;;7.70;99.90;;;;;;4987470;28;20489;-79
2023/04/27 08:33:19;;;;;;;1.13;0.63;;;7.70;99.90;;;;;;4982756;28;20046;-79
2023/04/27 08:35:45;;;;;;;0.73;0.73;;;7.80;99.90;;;;;;4984071;28;20039;-80
2023/04/27 08:38:10;;;;;;;0.95;0.80;;;7.80;99.90;;;;;;4993049;28;20381;-77
2023/04/27 08:40:44;;;;;;;0.98;0.75;;;7.80;99.90;;;;;;4997927;28;20098;-79
2023/04/27 08:43:10;;;;;;;1.42;0.85;;;7.90;99.90;;;;;;4984585;28;20420;-74
2023/04/27 08:45:35;;;;;;;1.23;1.13;;;7.90;99.90;;;;;;4981925;28;20038;-75
2023/04/27 08:48:01;;;;;;;1.10;0.63;;;8.00;99.90;;;;;;4986872;28;20121;-75
2023/04/27 08:50:27;;;;;;;3.28;1.65;;;8.00;99.90;;;;;;4987624;28;20109;-76
2023/04/27 08:52:53;;;;;;;2.88;0.82;;;8.00;99.90;;;;;;5004739;28;20042;-75
2023/04/27 08:55:18;;;;;;;0.93;0.70;;;8.00;99.90;;;;;;4988083;28;20559;-75
2023/04/27 08:57:55;;;;;;;0.85;0.77;;;8.10;99.90;;;;;;5012330;28;20588;-76
2023/04/27 09:00:20;;;;;;;0.98;0.98;;;8.10;99.90;;;;;;5001458;28;20626;-75
2023/04/27 09:02:47;;;;;;;0.55;0.50;;;8.20;99.90;;;;;;5002265;28;20057;-75
2023/04/27 09:05:21;;;;;;;2.80;1.33;;;8.20;99.90;;;;;;4994029;28;20050;-76
2023/04/27 09:08:04;;;;;;;2.15;1.20;;;8.30;99.90;;;;;;5013990;28;20088;-76
2023/04/27 09:10:41;;;;;;;1.42;1.20;;;8.30;99.90;;;;;;4993381;28;20084;-76
2023/04/27 09:13:07;;;;;;;1.48;0.60;;;8.40;99.90;;;;;;4994213;28;20117;-76
2023/04/27 09:15:41;;;;;;;3.50;0.80;;;8.40;99.90;;;;;;4999521;28;20508;-76
2023/04/27 09:18:16;;;;;;;2.25;1.17;;;8.50;99.90;;;;;;4988215;28;20052;-76
2023/04/27 09:20:47;;;;;;;1.85;1.15;;;8.50;99.90;;;;;;4987404;28;20460;-76
2023/04/27 09:23:30;;;;;;;2.15;0.95;;;8.60;99.90;;;;;;4996210;28;20734;-76
2023/04/27 09:25:57;;;;;;;2.03;1.15;;;8.60;99.90;;;;;;4989475;28;20038;-76
2023/04/27 09:28:26;;;;;;;2.10;1.02;;;8.70;99.90;;;;;;4990306;28;20077;-75
2023/04/27 09:30:56;;;;;;;1.75;0.85;;;8.70;99.90;;;;;;4990235;28;20140;-75
2023/04/27 09:33:26;;;;;;;1.83;0.82;;;8.80;99.90;;;;;;5013851;28;20041;-76
2023/04/27 09:35:53;;;;;;;1.45;1.00;;;8.80;99.90;;;;;;4999003;28;20160;-75
2023/04/27 09:38:20;;;;;;;1.02;0.60;;;8.80;99.90;;;;;;4993972;28;20041;-76
2023/04/27 09:40:47;;;;;;;2.13;1.05;;;8.90;99.90;;;;;;5007921;28;20034;-76
2023/04/27 09:43:13;;;;;;;4.60;1.20;;;9.00;99.90;;;;;;4995069;28;20101;-75
2023/04/27 09:45:39;;;;;;;7.40;0.80;;;9.00;99.90;;;;;;4990601;28;20050;-76
2023/04/27 09:48:05;;;;;;;1.00;0.90;;;9.10;99.90;;;;;;4995783;28;20030;-76
2023/04/27 09:50:35;;;;;;;2.13;0.80;;;9.10;99.90;;;;;;4992142;28;20061;-76
2023/04/27 09:53:06;;;;;;;1.02;0.70;;;9.20;99.90;;;;;;4999327;28;20425;-77
2023/04/27 09:55:45;;;;;;;0.95;0.80;;;9.20;99.90;;;;;;4986748;28;20124;-76
2023/04/27 09:58:21;;;;;;;0.60;0.60;;;9.20;99.90;;;;;;4986997;28;20054;-77
2023/04/27 10:01:03;;;;;;;1.75;0.98;;;9.30;99.90;;;;;;4985815;28;20434;-77
2023/04/27 10:03:56;;;;;;;1.92;1.10;;;9.40;99.90;;;;;;4985050;28;20054;-77
2023/04/27 10:06:48;;;;;;;1.80;1.58;;;9.40;99.90;;;;;;4987213;28;20053;-77
2023/04/27 10:09:16;;;;;;;2.90;1.10;;;9.40;99.90;;;;;;4987044;28;20077;-77
2023/04/27 10:11:43;;;;;;;1.58;1.48;;;9.50;99.90;;;;;;4985152;28;20065;-76
2023/04/27 10:14:16;;;;;;;3.28;1.27;;;9.50;99.90;;;;;;4986694;28;20057;-77
2023/04/27 10:16:50;;;;;;;1.35;1.15;;;9.60;99.90;;;;;;4987152;28;20121;-77
2023/04/27 10:19:16;;;;;;;1.38;1.15;;;9.70;99.90;;;;;;4988159;28;20472;-77
2023/04/27 10:22:01;;;;;;;2.40;0.73;;;9.70;99.90;;;;;;4987381;28;20118;-77
2023/04/27 10:24:37;;;;;;;1.45;0.90;;;9.70;99.90;;;;;;4986304;28;20050;-77
2023/04/27 10:27:08;;;;;;;2.10;1.20;;;9.80;99.90;;;;;;4992577;28;20037;-77
2023/04/27 10:29:37;;;;;;;1.02;0.82;;;9.90;99.90;;;;;;5014835;28;20128;-77
2023/04/27 10:32:08;;;;;;;2.70;1.33;;;9.90;99.90;;;;;;4995596;28;20050;-77
2023/04/27 10:34:36;;;;;;;0.95;0.85;;;10.00;99.90;;;;;;4986359;28;20070;-77
2023/04/27 10:37:09;;;;;;;1.17;0.70;;;10.00;99.90;;;;;;4985771;28;20049;-77
2023/04/27 10:39:40;;;;;;;3.80;0.88;;;10.10;99.90;;;;;;4986549;28;20342;-77
2023/04/27 10:42:07;;;;;;;0.73;0.70;;;10.10;99.90;;;;;;4985443;28;20042;-77
2023/04/27 10:44:34;;;;;;;1.88;0.75;;;10.20;99.90;;;;;;4985572;28;20400;-77
2023/04/27 10:47:18;;;;;;;2.70;1.08;;;10.20;99.90;;;;;;4986207;28;20038;-77
2023/04/27 10:49:44;;;;;;;2.58;1.02;;;10.20;99.90;;;;;;4994089;28;20053;-77
2023/04/27 10:52:10;;;;;;;2.00;0.93;;;10.30;99.90;;;;;;5006039;28;20038;-77
2023/04/27 10:54:38;;;;;;;2.65;1.58;;;10.30;99.90;;;;;;5005121;28;20049;-77
2023/04/27 10:57:08;;;;;;;1.90;1.17;;;10.30;99.90;;;;;;5005367;28;20049;-77
2023/04/27 10:59:52;;;;;;;4.75;1.30;;;10.30;99.90;;;;;;5005627;28;20048;-77
2023/04/27 11:02:25;;;;;;;2.65;0.93;;;10.40;99.90;;;;;;5021651;28;20774;-77
2023/04/27 11:04:50;;;;;;;3.13;0.98;;;10.30;99.90;;;;;;5005799;28;20111;-77
2023/04/27 11:07:26;;;;;;;2.75;1.00;;;10.40;99.90;;;;;;5021105;28;20042;-77
2023/04/27 11:09:52;;;;;;;2.95;0.98;;;10.40;99.90;;;;;;4967012;28;20759;-77
2023/04/27 11:12:18;;;;;;;1.50;1.15;;;10.40;99.90;;;;;;4984289;28;20054;-77
2023/04/27 11:14:44;;;;;;;1.63;0.90;;;10.40;99.90;;;;;;4985575;28;20112;-77
2023/04/27 11:17:12;;;;;;;1.08;0.90;;;10.50;99.90;;;;;;4984475;28;20030;-77
2023/04/27 11:19:47;;;;;;;2.80;1.10;;;10.50;99.90;;;;;;4985606;28;20481;-78
2023/04/27 11:22:18;;;;;;;2.50;1.30;;;10.50;99.90;;;;;;4994070;28;20089;-77
2023/04/27 11:24:48;;;;;;;2.92;1.73;;;10.60;99.90;;;;;;4989096;28;20129;-76
2023/04/27 11:27:14;;;;;;;4.03;1.55;;;10.60;99.90;;;;;;4984914;28;20113;-76
2023/04/27 11:29:40;;;;;;;2.72;1.48;;;10.60;99.90;;;;;;4982463;28;20117;-77
2023/04/27 11:32:06;;;;;;;2.85;1.35;;;10.60;99.90;;;;;;4995599;28;20129;-76
2023/04/27 11:34:37;;;;;;;1.83;1.10;;;10.60;99.90;;;;;;4989088;28;20030;-77
2023/04/27 11:37:05;;;;;;;1.60;1.23;;;10.50;99.90;;;;;;5008406;28;20374;-77
2023/04/27 11:39:35;;;;;;;2.80;1.25;;;10.50;99.90;;;;;;4988395;28;20374;-77
2023/04/27 11:42:17;;;;;;;3.90;1.50;;;10.50;99.90;;;;;;4998934;28;20045;-77
2023/04/27 11:44:52;;;;;;;3.72;1.60;;;10.50;99.90;;;;;;4995635;28;20051;-77
2023/04/27 11:47:18;;;;;;;3.25;1.35;;;10.50;99.90;;;;;;4987119;28;20037;-78
2023/04/27 11:49:51;;;;;;;1.50;1.30;;;10.50;99.90;;;;;;5004896;28;20485;-79
2023/04/27 11:52:17;;;;;;;2.08;1.40;;;10.60;99.90;;;;;;4984605;28;20086;-77
2023/04/27 11:54:51;;;;;;;2.63;1.00;;;10.60;99.90;;;;;;4986170;28;20043;-77
2023/04/27 11:57:24;;;;;;;1.48;1.38;;;10.70;99.90;;;;;;5003991;28;20049;-77
2023/04/27 11:59:50;;;;;;;2.28;1.67;;;10.70;99.90;;;;;;4988634;28;20117;-77
2023/04/27 12:02:16;;;;;;;3.17;1.40;;;10.80;99.90;;;;;;4984228;28;20058;-77
2023/04/27 12:04:42;;;;;;;2.08;1.75;;;10.90;99.90;;;;;;4983810;28;20041;-77
2023/04/27 12:07:07;;;;;;;2.95;2.22;;;10.90;99.90;;;;;;4987097;28;20108;-77
2023/04/27 12:09:33;;;;;;;2.63;1.35;;;10.90;99.90;;;;;;5004089;28;20065;-77
2023/04/27 12:11:59;;;;;;;6.25;1.15;;;11.00;99.90;;;;;;5017951;28;20057;-77
2023/04/27 12:14:24;;;;;;;5.57;1.48;;;11.00;99.90;;;;;;5019645;28;20468;-76
2023/04/27 12:16:50;;;;;;;1.50;1.40;;;11.00;99.90;;;;;;5003750;28;20631;-77
2023/04/27 12:19:16;;;;;;;3.47;1.30;;;11.10;99.90;;;;;;5019013;28;20058;-77
2023/04/27 12:21:42;;;;;;;7.30;1.40;;;11.10;99.90;;;;;;5003816;28;20421;-77
2023/04/27 12:24:07;;;;;;;1.83;1.38;;;11.10;99.90;;;;;;5019056;28;20674;-77
2023/04/27 12:26:34;;;;;;;2.60;1.95;;;11.10;99.90;;;;;;5018090;28;20045;-77
2023/04/27 12:29:02;;;;;;;4.18;1.48;;;11.10;99.90;;;;;;5019412;28;20407;-77
2023/04/27 12:31:28;;;;;;;2.20;1.40;;;11.20;99.90;;;;;;5003322;28;20054;-77
2023/04/27 12:33:54;;;;;;;1.33;0.90;;;11.20;99.90;;;;;;5004511;28;20045;-77
2023/04/27 12:36:19;;;;;;;2.55;1.65;;;11.30;99.90;;;;;;5003579;28;20127;-77
2023/04/27 12:38:46;;;;;;;3.58;1.20;;;11.30;99.90;;;;;;4990752;28;20460;-77
2023/04/27 12:41:11;;;;;;;1.92;1.50;;;11.20;99.90;;;;;;4982936;28;20042;-77
2023/04/27 12:43:39;;;;;;;2.83;1.02;;;11.30;99.90;;;;;;4983773;28;20105;-76
2023/04/27 12:46:04;;;;;;;1.65;0.85;;;11.30;99.90;;;;;;4982905;28;20477;-76
2023/04/27 12:48:30;;;;;;;2.30;1.58;;;11.40;99.90;;;;;;4983767;28;20092;-76
2023/04/27 12:50:57;;;;;;;2.53;1.10;;;11.40;99.90;;;;;;4984005;28;20157;-76
2023/04/27 12:53:23;;;;;;;2.58;1.15;;;11.40;99.90;;;;;;4999542;28;20587;-76
2023/04/27 12:55:48;;;;;;;2.22;1.50;;;11.40;99.90;;;;;;4993652;28;20052;-76